createdAt,value
2019-02-02T00:00:37.185Z,94764.22
2019-02-02T00:05:34.214Z,94739.77
2019-02-02T00:10:31.148Z,94749.73
2019-02-02T00:15:28.246Z,94746.22
2019-02-02T00:20:25.544Z,94747.42
2019-02-02T00:25:22.507Z,94740.56
2019-02-02T00:30:19.640Z,94743.11
2019-02-02T00:35:16.553Z,94745.72
2019-02-02T00:40:16.929Z,94748.36
2019-02-02T00:45:22.057Z,94773.23
2019-02-02T00:50:19.257Z,94749.79
2019-02-02T00:55:19.938Z,94752.08
2019-02-02T01:00:23.344Z,94766.34
2019-02-02T01:05:22.193Z,94775.13
2019-02-02T01:10:26.890Z,94786.42
2019-02-02T01:15:23.981Z,94775.54
2019-02-02T01:20:21.633Z,94762.91
2019-02-02T01:25:18.541Z,94774.16
2019-02-02T01:30:24.037Z,94770.23
2019-02-02T01:35:21.254Z,94739.73
2019-02-02T01:40:22.278Z,94768.09
2019-02-02T01:45:27.758Z,94783.28
2019-02-02T01:50:28.536Z,94768.44
2019-02-02T01:55:25.737Z,94774.55
2019-02-02T02:00:31.818Z,94788.16
2019-02-02T02:05:30.169Z,94788.70
2019-02-02T02:10:27.112Z,94781.42
2019-02-02T02:15:24.010Z,94782.78
2019-02-02T02:20:23.874Z,94779.13
2019-02-02T02:25:20.165Z,94780.25
2019-02-02T02:30:20.616Z,94770.06
2019-02-02T02:35:17.543Z,94774.73
2019-02-02T02:40:17.649Z,94771.87
2019-02-02T02:45:15.064Z,94790.73
2019-02-02T02:50:20.157Z,94771.80
2019-02-02T02:55:17.082Z,94766.39
2019-02-02T03:00:21.178Z,94768.45
2019-02-02T03:05:18.380Z,94771.65
2019-02-02T03:10:22.332Z,94758.50
2019-02-02T03:15:19.521Z,94771.86
2019-02-02T03:20:16.594Z,94764.80
2019-02-02T03:25:22.688Z,94756.48
2019-02-02T03:30:20.926Z,94745.91
2019-02-02T03:35:22.012Z,94750.23
2019-02-02T03:40:21.618Z,94743.63
2019-02-02T03:45:23.474Z,94735.28
2019-02-02T03:50:20.489Z,94747.75
2019-02-02T03:55:17.553Z,94755.02
2019-02-02T04:00:20.683Z,94752.94
2019-02-02T04:05:24.161Z,94760.61
2019-02-02T04:10:21.721Z,94769.88
2019-02-02T04:15:20.541Z,94770.74
2019-02-02T04:20:21.686Z,94773.44
2019-02-02T04:25:21.995Z,94768.88
2019-02-02T04:30:26.104Z,94787.75
2019-02-02T04:35:23.226Z,94781.13
2019-02-02T04:40:20.374Z,94780.56
2019-02-02T04:45:17.492Z,94788.27
2019-02-02T04:50:19.396Z,94798.20
2019-02-02T04:55:18.190Z,94779.90
2019-02-02T05:00:19.803Z,94772.17
2019-02-02T05:05:17.793Z,94762.91
2019-02-02T05:10:17.862Z,94760.05
2019-02-02T05:15:15.185Z,94763.28
2019-02-02T05:20:15.011Z,94765.50
2019-02-02T05:25:12.328Z,94779.73
2019-02-02T05:30:14.672Z,94768.48
2019-02-02T05:35:11.675Z,94777.36
2019-02-02T05:40:15.314Z,94771.52
2019-02-02T05:45:18.477Z,94778.16
2019-02-02T05:50:20.914Z,94793.67
2019-02-02T05:55:20.130Z,94790.48
2019-02-02T06:00:28.065Z,94795.79
2019-02-02T06:05:24.983Z,94785.44
2019-02-02T06:10:21.921Z,94788.44
2019-02-02T06:15:19.700Z,94778.48
2019-02-02T06:20:16.872Z,94803.55
2019-02-02T06:25:14.976Z,94779.69
2019-02-02T06:30:21.694Z,94793.59
2019-02-02T06:35:19.247Z,94784.95
2019-02-02T06:40:16.736Z,94787.62
2019-02-02T06:45:24.097Z,94787.36
2019-02-02T06:50:21.001Z,94793.11
2019-02-02T06:55:17.969Z,94805.59
2019-02-02T07:00:26.556Z,94803.54
2019-02-02T07:05:25.316Z,94795.02
2019-02-02T07:10:26.299Z,94803.91
2019-02-02T07:15:29.227Z,94789.38
2019-02-02T07:20:26.341Z,94810.05
2019-02-02T07:25:23.294Z,94821.16
2019-02-02T07:30:28.739Z,94817.02
2019-02-02T07:35:22.347Z,94823.39
2019-02-02T07:40:20.972Z,94803.16
2019-02-02T07:45:31.073Z,94799.16
2019-02-02T07:50:27.993Z,94797.52
2019-02-02T07:55:25.096Z,94797.75
2019-02-02T08:00:25.596Z,94786.23
2019-02-02T08:05:22.648Z,94774.75
2019-02-02T08:10:19.538Z,94782.64
2019-02-02T08:15:24.244Z,94795.75
2019-02-02T08:20:21.992Z,94810.48
2019-02-02T08:25:19.025Z,94801.89
2019-02-02T08:30:28.717Z,94802.81
2019-02-02T08:35:25.612Z,94770.44
2019-02-02T08:40:22.653Z,94780.39
2019-02-02T08:45:19.756Z,94799.12
2019-02-02T08:50:29.801Z,94801.60
2019-02-02T08:55:26.755Z,94840.99
2019-02-02T09:00:23.750Z,94797.60
2019-02-02T09:05:22.463Z,94802.47
2019-02-02T09:10:22.421Z,94801.56
2019-02-02T09:15:19.717Z,94838.22
2019-02-02T09:20:16.647Z,94850.55
2019-02-02T09:25:16.129Z,94870.98
2019-02-02T09:30:31.632Z,94897.89
2019-02-02T09:35:28.645Z,94884.41
2019-02-02T09:40:25.915Z,94884.18
2019-02-02T09:45:23.869Z,94893.77
2019-02-02T09:50:25.812Z,94909.59
2019-02-02T09:55:24.606Z,94926.35
2019-02-02T10:00:25.767Z,94911.82
2019-02-02T10:05:22.675Z,94928.27
2019-02-02T10:10:32.034Z,94931.78
2019-02-02T10:15:29.054Z,94929.56
2019-02-02T10:20:28.706Z,94927.03
2019-02-02T10:25:29.215Z,94916.73
2019-02-02T10:30:33.605Z,94904.49
2019-02-02T10:35:31.020Z,94907.52
2019-02-02T10:40:30.030Z,94905.05
2019-02-02T10:45:26.856Z,94905.19
2019-02-02T10:50:26.679Z,94908.63
2019-02-02T10:55:23.604Z,94902.41
2019-02-02T11:00:28.888Z,94903.48
2019-02-02T11:05:25.879Z,94906.67
2019-02-02T11:10:29.667Z,94900.93
2019-02-02T11:15:26.869Z,94915.48
2019-02-02T11:20:34.114Z,94895.77
2019-02-02T11:25:32.098Z,94913.97
2019-02-02T11:30:30.212Z,94885.77
2019-02-02T11:35:27.183Z,94898.84
2019-02-02T11:40:27.119Z,94905.23
2019-02-02T11:45:24.142Z,94897.20
2019-02-02T11:50:21.918Z,94898.84
2019-02-02T11:55:21.608Z,94881.69
2019-02-02T12:00:29.866Z,94886.57
2019-02-02T12:05:27.141Z,94886.17
2019-02-02T12:10:30.598Z,94880.95
2019-02-02T12:15:27.510Z,94868.77
2019-02-02T12:20:24.758Z,94869.77
2019-02-02T12:25:21.843Z,94875.44
2019-02-02T12:30:32.874Z,94882.03
2019-02-02T12:35:29.802Z,94881.13
2019-02-02T12:40:27.139Z,94875.55
2019-02-02T12:45:34.466Z,94884.00
2019-02-02T12:50:31.371Z,94878.07
2019-02-02T12:55:28.410Z,94893.84
2019-02-02T13:00:25.349Z,94888.63
2019-02-02T13:05:22.790Z,94883.58
2019-02-02T13:10:28.009Z,94878.20
2019-02-02T13:15:24.914Z,94882.88
2019-02-02T13:20:22.056Z,94883.88
2019-02-02T13:25:25.309Z,94881.12
2019-02-02T13:30:34.389Z,94882.46
2019-02-02T13:35:34.666Z,94879.63
2019-02-02T13:40:31.592Z,94886.48
2019-02-02T13:45:28.622Z,94881.16
2019-02-02T13:50:25.636Z,94887.98
2019-02-02T13:55:22.762Z,94886.94
2019-02-02T14:00:28.993Z,94898.09
2019-02-02T14:05:26.104Z,94890.73
2019-02-02T14:10:26.972Z,94903.04
2019-02-02T14:15:23.877Z,94888.70
2019-02-02T14:20:21.237Z,94871.87
2019-02-02T14:25:18.248Z,94873.97
2019-02-02T14:30:21.333Z,94866.52
2019-02-02T14:35:24.425Z,94875.55
2019-02-02T14:40:21.336Z,94887.08
2019-02-02T14:45:27.229Z,94887.95
2019-02-02T14:50:23.117Z,94905.30
2019-02-02T14:55:23.788Z,94891.73
2019-02-02T15:00:29.652Z,94901.27
2019-02-02T15:05:26.876Z,94895.69
2019-02-02T15:10:24.041Z,94896.41
2019-02-02T15:15:20.943Z,94887.16
2019-02-02T15:20:27.801Z,94894.61
2019-02-02T15:25:24.695Z,94879.73
2019-02-02T15:30:28.349Z,94877.36
2019-02-02T15:35:26.205Z,94885.12
2019-02-02T15:40:23.138Z,94866.05
2019-02-02T15:45:29.084Z,94898.09
2019-02-02T15:50:25.992Z,94907.53
2019-02-02T15:55:24.039Z,94907.08
2019-02-02T16:00:32.560Z,94917.27
2019-02-02T16:05:29.799Z,94920.17
2019-02-02T16:10:30.148Z,94923.53
2019-02-02T16:15:27.055Z,94926.20
2019-02-02T16:20:41.911Z,94920.62
2019-02-02T16:25:38.112Z,94928.44
2019-02-02T16:30:35.057Z,94933.38
2019-02-02T16:35:32.488Z,94934.08
2019-02-02T16:40:30.536Z,94924.14
2019-02-02T16:45:30.859Z,94932.09
2019-02-02T16:50:28.396Z,94923.69
2019-02-02T16:55:25.412Z,94922.05
2019-02-02T17:00:33.080Z,94916.68
2019-02-02T17:05:30.125Z,94927.51
2019-02-02T17:10:33.885Z,94923.50
2019-02-02T17:15:30.824Z,94914.98
2019-02-02T17:20:39.792Z,94928.72
2019-02-02T17:25:36.794Z,94939.49
2019-02-02T17:30:33.750Z,94953.04
2019-02-02T17:35:30.943Z,94943.35
2019-02-02T17:40:29.510Z,94950.95
2019-02-02T17:45:26.423Z,94941.70
2019-02-02T17:50:28.300Z,94954.69
2019-02-02T17:55:25.344Z,94954.83
2019-02-02T18:00:33.675Z,94952.61
2019-02-02T18:05:30.572Z,94973.62
2019-02-02T18:10:27.533Z,94972.50
2019-02-02T18:15:24.444Z,94974.34
2019-02-02T18:20:21.384Z,94986.24
2019-02-02T18:25:18.505Z,94997.11
2019-02-02T18:30:27.057Z,94996.94
2019-02-02T18:35:24.273Z,95003.03
2019-02-02T18:40:23.479Z,95019.85
2019-02-02T18:45:27.522Z,95017.61
2019-02-02T18:50:24.447Z,95026.05
2019-02-02T18:55:26.129Z,95026.14
2019-02-02T19:00:23.153Z,95022.25
2019-02-02T19:05:20.208Z,95032.09
2019-02-02T19:10:31.497Z,95023.79
2019-02-02T19:15:28.590Z,95024.23
2019-02-02T19:20:25.536Z,95019.65
2019-02-02T19:25:22.435Z,95022.89
2019-02-02T19:30:31.615Z,95029.73
2019-02-02T19:35:28.529Z,95034.77
2019-02-02T19:40:26.302Z,95033.48
2019-02-02T19:45:26.512Z,95043.28
2019-02-02T19:50:25.780Z,95050.52
2019-02-02T19:55:22.876Z,95052.81
2019-02-02T20:00:26.718Z,95058.84
2019-02-02T20:05:28.801Z,95055.85
2019-02-02T20:10:22.704Z,95057.54
2019-02-02T20:15:25.894Z,95062.47
2019-02-02T20:20:25.714Z,95067.25
2019-02-02T20:25:22.627Z,95075.97
2019-02-02T20:30:31.464Z,95067.60
2019-02-02T20:35:39.783Z,95063.48
2019-02-02T20:40:27.261Z,95059.34
2019-02-02T20:45:28.462Z,95064.85
2019-02-02T20:50:25.433Z,95065.94
2019-02-02T20:55:32.127Z,95060.39
2019-02-02T21:00:30.347Z,95061.53
2019-02-02T21:05:27.264Z,95060.54
2019-02-02T21:10:25.006Z,95045.94
2019-02-02T21:15:22.201Z,95057.64
2019-02-02T21:20:28.716Z,95041.87
2019-02-02T21:25:25.629Z,95059.16
2019-02-02T21:30:30.129Z,95053.03
2019-02-02T21:35:27.237Z,95051.30
2019-02-02T21:40:26.873Z,95037.09
2019-02-02T21:45:25.513Z,95040.97
2019-02-02T21:50:24.493Z,95038.79
2019-02-02T21:55:26.855Z,95036.06
2019-02-02T22:00:30.859Z,95037.94
2019-02-02T22:05:27.857Z,95042.09
2019-02-02T22:10:25.141Z,95044.73
2019-02-02T22:15:27.564Z,95037.05
2019-02-02T22:20:24.513Z,95028.47
2019-02-02T22:25:27.733Z,95030.99
2019-02-02T22:30:31.680Z,95041.38
2019-02-02T22:35:28.602Z,95043.02
2019-02-02T22:40:27.474Z,95067.25
2019-02-02T22:45:24.384Z,95079.58
2019-02-02T22:50:24.079Z,95073.86
2019-02-02T22:55:22.885Z,95079.92
2019-02-02T23:00:55.915Z,95077.66
2019-02-02T23:06:09.796Z,95066.56
2019-02-02T23:11:30.596Z,95069.62
2019-02-02T23:16:27.522Z,95072.14
2019-02-02T23:21:24.863Z,95066.76
2019-02-02T23:26:21.872Z,95067.75
2019-02-02T23:31:19.022Z,95085.86
2019-02-02T23:36:15.946Z,95086.81
2019-02-02T23:41:12.935Z,95077.69
2019-02-02T23:46:09.845Z,95069.80
2019-02-02T23:51:06.817Z,95065.49
2019-02-02T23:56:04.132Z,95053.45
